Weather observations for the past three days for
University Airport
Imperial (Metric)
Date Time (pdt) Wind (mph) Vis. (mi.) Weather Sky Cond. Temperature (ºF) Relative Humidity Wind Chill (°F) Heat Index (°F) Pressure Precipitation (in)
Air Dwpt 6 hour altimeter (in) sea level (mb) 1 hr 3 hr 6 hr
Max. Min.
04 02:25 Calm 10.00 NULL NULL 62.6 59 88% 29.87 0.0
04 02:15 Calm 10.00 NULL NULL 62.6 59 88% 29.87 0.0
04 01:25 Calm 10.00 NULL NULL 62.6 59 88% 29.87 0.0
04 01:15 Calm 10.00 NULL NULL 62.6 60.8 94% 29.87 0.0
04 00:25 Calm 10.00 NULL NULL 62.6 62.6 100% 29.87 0.0
04 00:15 Calm 10.00 NULL NULL 62.6 62.6 100% 29.87 0.0
03 23:25 Calm 10.00 NULL NULL 64.4 62.6 94% 29.87 0.0
03 23:15 Calm 10.00 NULL NULL 64.4 62.6 94% 29.86 0.0
03 22:25 Calm 10.00 NULL NULL 64.4 62.6 94% 29.87 0.0
03 22:15 Calm 10.00 NULL NULL 64.4 60.8 88% 29.88 0.0
03 21:25 Calm 10.00 NULL NULL 64.4 59 83% 29.88 0.0
03 21:15 Calm 10.00 NULL NULL 64.4 59 83% 29.87 0.0
03 20:25 SW 3 10.00 NULL NULL 66.2 57.2 73% 29.86 0.0
03 20:15 SW 7 10.00 NULL NULL 66.2 57.2 73% 29.86 0.0
03 19:25 Calm 10.00 NULL NULL 66.2 57.2 73% 29.87 0.0
03 19:15 W 6 10.00 NULL NULL 66.2 57.2 73% 29.87 0.0
03 18:25 W 9 10.00 NULL NULL 68 57.2 69% 29.87 0.0
03 18:15 W 7 10.00 NULL NULL 68 57.2 69% 29.87 0.0
03 17:25 SW 8 10.00 NULL NULL 68 62.6 83% 29.88 0.0
03 17:15 SW 10 G 17 10.00 NULL NULL 68 60.8 78% 29.88 0.0
03 16:25 SW 7 G 16 10.00 NULL NULL 71.6 59 65% 29.89 0.0
03 16:15 SW 12 G 20 10.00 NULL NULL 71.6 60.8 69% 29.89 0.0
03 15:25 SW 12 G 17 10.00 NULL NULL 71.6 59 65% 29.9 0.0
03 15:15 S 10 G 17 10.00 NULL NULL 71.6 59 65% 29.9 0.0
03 14:25 S 13 G 17 10.00 NULL NULL 71.6 59 65% 29.9 0.0
03 14:15 S 12 G 18 10.00 NULL NULL 71.6 59 65% 29.91 0.0
03 13:05 S 13 G 17 10.00 NULL NULL 71.6 59 65% 29.93 0.0
03 12:55 SW 12 G 18 10.00 NULL NULL 71.6 59 65% 29.93 0.0
03 12:25 S 16 G 22 10.00 NULL NULL 71.6 59 65% 29.94 0.0
03 12:15 SW 13 G 17 10.00 NULL NULL 69.8 59 69% 29.94 0.0
03 11:50 S 12 10.00 NULL NULL 69.8 59 69% 29.95 0.0
03 11:35 S 10 10.00 NULL NULL 68 59 73% 29.96 0.0
03 11:15 S 12 10.00 NULL NULL 68 59 73% 29.96 0.0
03 10:55 S 10 10.00 NULL NULL 68 59 73% 29.96 0.0
03 10:35 S 9 10.00 NULL NULL 66.2 59 78% 29.96 0.0
03 10:15 S 12 G 20 10.00 NULL NULL 66.2 59 78% 29.96 0.0
03 09:55 S 14 G 18 10.00 NULL NULL 66.2 59 78% 29.96 0.0
03 09:35 S 12 G 18 10.00 NULL NULL 66.2 59 78% 29.96 0.0
03 09:15 S 10 G 16 10.00 NULL NULL 66.2 59 78% 29.96 0.0
03 08:55 S 13 10.00 NULL NULL 66.2 59 78% 29.97 0.0
03 08:35 SW 8 G 17 10.00 NULL NULL 64.4 59 83% 29.97 0.0
03 08:15 S 8 10.00 NULL NULL 66.2 59 78% 29.97 0.0
03 07:55 S 8 10.00 NULL NULL 66.2 59 78% 29.96 0.0
03 07:35 S 8 10.00 NULL NULL 64.4 59 83% 29.97 0.0
03 07:15 SW 8 10.00 NULL NULL 62.6 59 88% 29.96 0.0
03 06:55 S 6 10.00 NULL NULL 62.6 59 88% 29.96 0.0
03 06:35 S 7 10.00 NULL NULL 62.6 59 88% 29.96 0.0
03 06:15 Calm 10.00 NULL NULL 62.6 59 88% 29.96 0.0
03 05:55 S 3 10.00 NULL NULL 60.8 57.2 88% 29.96 0.0
03 05:35 SW 3 10.00 NULL NULL 60.8 57.2 88% 29.96 0.0
03 04:55 S 8 10.00 NULL NULL 60.8 55.4 83% 29.97 0.0
03 04:35 Calm 10.00 NULL NULL 60.8 55.4 83% 29.97 0.0
03 04:15 Calm 10.00 NULL NULL 62.6 55.4 77% 29.98 0.0
03 03:55 Calm 10.00 NULL NULL 62.6 55.4 77% 29.98 0.0
03 03:35 SW 5 10.00 NULL NULL 60.8 55.4 83% 29.97 0.0
03 03:15 SW 7 10.00 NULL NULL 60.8 55.4 83% 29.98 0.0
03 02:55 Calm 10.00 NULL NULL 60.8 55.4 83% 29.98 0.0
03 02:35 SW 3 10.00 NULL NULL 59 57.2 94% 29.98 0.0
03 02:15 Calm 10.00 NULL NULL 59 55.4 88% 29.99 0.0
03 01:55 S 7 10.00 NULL NULL 59 55.4 88% 29.99 0.0
03 01:35 S 6 10.00 NULL NULL 59 55.4 88% 29.99 0.0
03 01:15 S 7 10.00 NULL NULL 60.8 53.6 77% 29.99 0.0
03 00:55 Calm 10.00 NULL NULL 60.8 55.4 83% 29.99 0.0
03 00:35 Calm 10.00 NULL NULL 60.8 53.6 77% 29.98 0.0
03 00:15 S 3 10.00 NULL NULL 60.8 53.6 77% 29.98 0.0
02 23:55 Calm 10.00 NULL NULL 62.6 51.8 68% 29.99 0.0
02 23:35 S 6 10.00 NULL NULL 62.6 50 64% 29.99 0.0
02 23:15 S 5 10.00 NULL NULL 62.6 50 64% 29.99 0.0
02 22:55 S 6 10.00 NULL NULL 62.6 50 64% 29.99 0.0
02 22:35 Calm 10.00 NULL NULL 64.4 48.2 56% 29.99 0.0
02 22:15 S 7 10.00 NULL NULL 64.4 50 60% 29.99 0.0
02 21:55 SE 3 10.00 NULL NULL 64.4 50 60% 30 0.0
02 21:35 S 3 10.00 NULL NULL 64.4 50 60% 29.99 0.0
02 21:15 Calm 10.00 NULL NULL 64.4 50 60% 29.99 0.0
02 20:55 S 3 10.00 NULL NULL 66.2 51.8 60% 29.98 0.0
02 20:35 Calm 10.00 NULL NULL 66.2 51.8 60% 29.97 0.0
02 20:15 Calm 10.00 NULL NULL 68 51.8 56% 29.96 0.0
02 19:55 S 3 10.00 NULL NULL 69.8 51.8 53% 29.96 0.0
02 19:35 Calm 10.00 NULL NULL 71.6 51.8 50% 29.97 0.0
02 19:15 SW 6 10.00 NULL NULL 73.4 50 44% 29.96 0.0
02 18:55 SW 6 10.00 NULL NULL 73.4 50 44% 29.97 0.0
02 18:35 W 9 10.00 NULL NULL 75.2 48.2 39% 77 29.97 0.0
02 18:15 SW 6 G 16 10.00 NULL NULL 75.2 48.2 39% 77 29.97 0.0
02 17:55 SW 10 G 18 10.00 NULL NULL 75.2 48.2 39% 77 29.97 0.0
02 17:35 SW 13 10.00 NULL NULL 77 48.2 36% 78 29.97 0.0
02 17:15 S 12 10.00 NULL NULL 77 48.2 36% 78 29.98 0.0
02 16:55 S 13 G 16 10.00 NULL NULL 77 48.2 36% 78 29.99 0.0
02 16:35 SW 12 G 17 10.00 NULL NULL 77 48.2 36% 78 29.99 0.0
02 16:15 SW 13 G 18 10.00 NULL NULL 77 48.2 36% 78 29.99 0.0
02 15:55 SW 15 G 20 10.00 NULL NULL 75.2 50 41% 78 30 0.0
02 15:35 SW 12 G 17 10.00 NULL NULL 75.2 50 41% 78 30 0.0
02 15:15 SW 13 G 18 10.00 NULL NULL 77 50 39% 78 30.01 0.0
02 14:55 SW 13 G 18 10.00 NULL NULL 75.2 53.6 47% 78 30.01 0.0
02 14:35 S 10 10.00 NULL NULL 75.2 53.6 47% 78 30.02 0.0
02 14:15 S 12 G 16 10.00 NULL NULL 75.2 53.6 47% 78 30.02 0.0
02 13:55 SW 10 G 17 10.00 NULL NULL 73.4 55.4 53% 30.03 0.0
02 13:35 S 8 G 22 10.00 NULL NULL 75.2 53.6 47% 78 30.03 0.0
02 13:15 S 14 10.00 NULL NULL 73.4 55.4 53% 30.04 0.0
02 12:55 SW 10 10.00 NULL NULL 73.4 57.2 57% 30.04 0.0
02 12:35 SW 9 10.00 NULL NULL 73.4 57.2 57% 30.05 0.0
02 12:15 SW 12 G 17 10.00 NULL NULL 73.4 55.4 53% 30.05 0.0
02 11:55 SW 12 G 16 10.00 NULL NULL 71.6 55.4 57% 30.06 0.0
02 11:35 SW 9 10.00 NULL NULL 71.6 55.4 57% 30.06 0.0
02 11:15 S 7 10.00 NULL NULL 71.6 55.4 57% 30.05 0.0
02 10:55 S 12 G 17 10.00 NULL NULL 69.8 55.4 60% 30.05 0.0
02 10:35 S 12 10.00 NULL NULL 68 55.4 64% 30.05 0.0
02 10:15 S 12 9.00 NULL NULL 68 55.4 64% 30.05 0.0
02 09:55 S 9 10.00 NULL NULL 66.2 55.4 68% 30.05 0.0
02 09:35 S 8 10.00 NULL NULL 66.2 55.4 68% 30.05 0.0
02 09:15 S 9 10.00 NULL NULL 64.4 57.2 78% 30.04 0.0
02 08:55 S 8 10.00 NULL NULL 62.6 57.2 83% 30.05 0.0
02 08:35 S 8 10.00 NULL NULL 62.6 57.2 83% 30.05 0.0
02 08:15 S 8 10.00 NULL NULL 62.6 57.2 83% 30.04 0.0
02 07:55 SE 9 10.00 NULL NULL 59 57.2 94% 30.03 0.0
02 07:35 SE 8 10.00 NULL NULL 59 57.2 94% 30.03 0.0
02 07:15 Calm 10.00 NULL NULL 59 57.2 94% 30.02 0.0
02 06:55 SE 5 10.00 NULL NULL 59 57.2 94% 30.02 0.0
02 06:35 Calm 10.00 NULL NULL 59 59 100% 30.02 0.0
02 06:15 Calm 10.00 NULL NULL 59 59 100% 30.01 0.0
02 05:55 S 5 10.00 NULL NULL 59 59 100% 30.01 0.0
02 05:35 Calm 10.00 NULL NULL 59 57.2 94% 30 0.0
02 05:15 S 5 10.00 NULL NULL 59 57.2 94% 30 0.0
02 04:55 S 6 10.00 NULL NULL 59 57.2 94% 30.01 0.0
02 04:35 S 3 10.00 NULL NULL 59 57.2 94% 30 0.0
02 04:15 S 8 10.00 NULL NULL 59 57.2 94% 30 0.0
02 03:55 Calm 10.00 NULL NULL 59 55.4 88% 30.01 0.0
02 03:35 Calm 10.00 NULL NULL 59 55.4 88% 30.02 0.0
02 03:15 Calm 10.00 NULL NULL 59 55.4 88% 30.01 0.0
02 02:55 Calm 10.00 NULL NULL 59 55.4 88% 30.02 0.0
02 02:35 Calm 10.00 NULL NULL 60.8 55.4 83% 30.02 0.0
02 02:15 Calm 10.00 NULL NULL 60.8 53.6 77% 30.01 0.0
02 01:55 Calm 10.00 NULL NULL 60.8 53.6 77% 30.01 0.0
02 01:35 Calm 10.00 NULL NULL 62.6 53.6 73% 30.01 0.0
02 01:15 Calm 10.00 NULL NULL 62.6 55.4 77% 30 0.0
02 00:55 Calm 10.00 NULL NULL 62.6 55.4 77% 30 0.0
02 00:35 Calm 10.00 NULL NULL 62.6 55.4 77% 30 0.0
02 00:15 SW 8 10.00 NULL NULL 62.6 55.4 77% 29.99 0.0
01 23:55 S 9 10.00 NULL NULL 62.6 55.4 77% 29.99 0.0
01 23:35 S 9 10.00 NULL NULL 62.6 55.4 77% 29.99 0.0
01 23:15 S 7 10.00 NULL NULL 62.6 55.4 77% 29.99 0.0
01 22:55 S 7 10.00 NULL NULL 62.6 55.4 77% 30 0.0
01 22:35 S 7 10.00 NULL NULL 62.6 55.4 77% 30 0.0
01 22:15 S 8 10.00 NULL NULL 62.6 53.6 73% 30.01 0.0
01 21:55 S 8 10.00 NULL NULL 62.6 53.6 73% 30 0.0
01 21:35 S 8 10.00 NULL NULL 62.6 50 64% 30 0.0
01 21:15 S 6 10.00 NULL NULL 62.6 50 64% 29.99 0.0
01 20:55 SW 6 10.00 NULL NULL 64.4 50 60% 29.99 0.0
01 20:35 SW 8 10.00 NULL NULL 66.2 48.2 52% 29.98 0.0
01 20:15 SW 9 10.00 NULL NULL 66.2 48.2 52% 29.97 0.0
01 19:55 SW 5 10.00 NULL NULL 68 48.2 49% 29.97 0.0
01 19:35 SW 7 10.00 NULL NULL 68 48.2 49% 29.96 0.0
01 19:15 SW 7 G 16 10.00 NULL NULL 69.8 46.4 43% 29.95 0.0
01 18:55 SW 10 10.00 NULL NULL 71.6 46.4 41% 29.95 0.0
01 18:35 S 13 10.00 NULL NULL 71.6 50 47% 29.95 0.0
01 18:15 S 12 G 17 10.00 NULL NULL 71.6 50 47% 29.95 0.0
01 17:55 S 14 G 18 10.00 NULL NULL 73.4 48.2 41% 29.94 0.0
01 17:35 SW 14 G 18 10.00 NULL NULL 73.4 48.2 41% 29.94 0.0
01 17:15 S 14 10.00 NULL NULL 73.4 48.2 41% 29.94 0.0
01 16:55 S 14 G 20 10.00 NULL NULL 75.2 48.2 39% 77 29.94 0.0
01 16:35 S 12 G 20 10.00 NULL NULL 75.2 48.2 39% 77 29.95 0.0
01 16:15 S 12 G 22 10.00 NULL NULL 75.2 48.2 39% 77 29.95 0.0
01 15:55 S 13 G 18 10.00 NULL NULL 75.2 48.2 39% 77 29.95 0.0
01 15:35 S 14 10.00 NULL NULL 75.2 48.2 39% 77 29.95 0.0
01 15:15 S 6 G 16 10.00 NULL NULL 75.2 48.2 39% 77 29.96 0.0
01 14:55 S 9 G 17 10.00 NULL NULL 75.2 48.2 39% 77 29.96 0.0
01 14:35 S 10 G 20 10.00 NULL NULL 75.2 48.2 39% 77 29.96 0.0
01 14:15 S 14 G 18 10.00 NULL NULL 75.2 48.2 39% 77 29.97 0.0
01 13:55 S 10 10.00 NULL NULL 75.2 48.2 39% 77 29.97 0.0
01 13:35 Calm 10.00 NULL NULL 73.4 46.4 38% 29.97 0.0
01 13:15 SW 9 10.00 NULL NULL 75.2 48.2 39% 77 29.99 0.0
01 12:55 S 9 10.00 NULL NULL 71.6 50 47% 29.99 0.0
01 12:35 S 7 10.00 NULL NULL 71.6 50 47% 29.99 0.0
01 12:15 Calm 10.00 NULL NULL 69.8 50 50% 30 0.0
01 11:55 S 7 10.00 NULL NULL 71.6 50 47% 30 0.0
01 11:35 Calm 10.00 NULL NULL 68 50 53% 30 0.0
01 11:15 S 9 10.00 NULL NULL 69.8 51.8 53% 30 0.0
01 10:55 S 5 10.00 NULL NULL 68 48.2 49% 30 0.0
01 10:35 SE 5 10.00 NULL NULL 68 48.2 49% 30 0.0
01 10:15 S 9 10.00 NULL NULL 68 48.2 49% 29.99 0.0
01 09:55 Calm 10.00 NULL NULL 68 50 53% 29.99 0.0
01 09:35 Calm 10.00 NULL NULL 66.2 50 56% 29.98 0.0
01 09:10 Calm 10.00 NULL NULL 66.2 50 56% 29.98 0.0
01 08:55 Calm 10.00 NULL NULL 64.4 50 60% 29.98 0.0
01 08:35 Calm 10.00 NULL NULL 62.6 53.6 73% 29.97 0.0
01 08:15 Calm 10.00 NULL NULL 59 55.4 88% 29.97 0.0
01 07:55 Calm 10.00 NULL NULL 57.2 55.4 94% 29.95 0.0
01 07:35 Calm 10.00 NULL NULL 55.4 55.4 100% 29.95 0.0
01 07:15 Calm 10.00 NULL NULL 53.6 53.6 100% 29.94 0.0
01 06:55 Calm 10.00 NULL NULL 53.6 53.6 100% 29.93 0.0
01 06:35 Calm 10.00 NULL NULL 53.6 53.6 100% 29.92 0.0
01 06:15 Calm 10.00 NULL NULL 53.6 53.6 100% 29.92 0.0
01 05:55 Calm 10.00 NULL NULL 51.8 51.8 100% 29.92 0.0
01 05:35 Calm 10.00 NULL NULL 53.6 51.8 94% 29.91 0.0
01 05:15 Calm 10.00 NULL NULL 53.6 53.6 100% 29.91 0.0
01 04:55 Calm 10.00 NULL NULL 55.4 55.4 100% 29.9 0.0
01 04:35 Calm 10.00 NULL NULL 55.4 55.4 100% 29.91 0.0
01 04:15 Calm 10.00 NULL NULL 55.4 55.4 100% 29.9 0.0
01 03:55 Calm 10.00 NULL NULL 55.4 55.4 100% 29.89 0.0
01 03:35 Calm 10.00 NULL NULL 55.4 55.4 100% 29.89 0.0
01 03:15 Calm 10.00 NULL NULL 57.2 55.4 94% 29.88 0.0
Date Time (pdt) Wind (mph) Vis. (mi.) Weather Sky Cond. Air Dwpt Max. Min. Relative Humidity Wind Chill (°F) Heat Index (°F) altimeter (in) sea level (mb) 1 hr 3 hr 6 hr
6 hour
Temperature (ºF) Pressure Precipitation (in)